South Bend, Nebraska
Current Conditions -  °F | °C
As of 10:35 AM on Monday 26 Jan 2015 (Local Time) from KMLE Reporting Station
Clear Clear  
Wind Chill:   Ceiling: Unl
Heat Index:   Visibility: 10mi
Dew Point:   Wind: 12mph
Humidity: 64%   Direction: 310°NW
Pressure: 29.9"   Gusts: 18mph
Location:  41°N, 96.25°W
Report Text: KMLE 261635Z AUTO 31010G16KT 10SM CLR 08/02 A2990 RMK AO2 T00800016
Loading
Personal Weather Stations






























Interactive Weather Map New forecast layout! Learn more

10-Day Weather Forecast

Advertisements
Track Severe Weather on mobile